AFR45CR LFLL-LFPG
Flight info
| Callsign | AFR45CR |
|---|---|
| Flight time | 0h 51m |
| Altitude | 28000 |
| Route | MOKIP8S/17R MOKIP DCT ARFOZ UN854 TINIL |
| Aircraft | A321/M-SDE2E3FGIJ1RWY/HB1 |
Departure
| Time | 2026-05-05 20:16 |
|---|---|
| Airport | Lyon Saint-Exupéry Airport (LFLL) |
Arrival
| Time | 2026-05-05 21:07 |
|---|---|
| Airport | Charles de Gaulle International Airport (LFPG) |
| Time | Latitude | Longitude | Altitude | Speed | Heading |
|---|---|---|---|---|---|
| 2026-05-05 20:16 | 45.73542 | 5.12785 | 6744 ft | 286 kts | 343° |
| 2026-05-05 20:16 | 45.75520 | 5.12096 | 7416 ft | 295 kts | 345° |
| 2026-05-05 20:17 | 45.77534 | 5.11402 | 8237 ft | 297 kts | 344° |
| 2026-05-05 20:17 | 45.79516 | 5.10665 | 9110 ft | 297 kts | 343° |
| 2026-05-05 20:17 | 45.81505 | 5.09874 | 10055 ft | 294 kts | 342° |
| 2026-05-05 20:17 | 45.83498 | 5.09085 | 10696 ft | 303 kts | 343° |
| 2026-05-05 20:18 | 45.85619 | 5.08269 | 11065 ft | 320 kts | 343° |
| 2026-05-05 20:18 | 45.87828 | 5.07441 | 11479 ft | 334 kts | 343° |
| 2026-05-05 20:18 | 45.90086 | 5.06602 | 12122 ft | 340 kts | 344° |
| 2026-05-05 20:18 | 45.92416 | 5.05853 | 12864 ft | 343 kts | 348° |
| 2026-05-05 20:19 | 45.94807 | 5.05325 | 13553 ft | 347 kts | 351° |
| 2026-05-05 20:19 | 45.97249 | 5.04876 | 14218 ft | 351 kts | 352° |
| 2026-05-05 20:19 | 45.99679 | 5.04444 | 14850 ft | 355 kts | 352° |
| 2026-05-05 20:19 | 46.02167 | 5.04016 | 15487 ft | 359 kts | 354° |
| 2026-05-05 20:20 | 46.04698 | 5.03946 | 16062 ft | 364 kts | 0° |
| 2026-05-05 20:20 | 46.07255 | 5.04083 | 16659 ft | 368 kts | 1° |
| 2026-05-05 20:20 | 46.09839 | 5.04244 | 17219 ft | 373 kts | 1° |
| 2026-05-05 20:20 | 46.12455 | 5.04390 | 17754 ft | 377 kts | 1° |
| 2026-05-05 20:21 | 46.15126 | 5.04519 | 18198 ft | 385 kts | 1° |
| 2026-05-05 20:21 | 46.17839 | 5.04635 | 18647 ft | 391 kts | 1° |
| 2026-05-05 20:21 | 46.20560 | 5.04742 | 19175 ft | 394 kts | 1° |
| 2026-05-05 20:21 | 46.23326 | 5.04847 | 19736 ft | 397 kts | 1° |
| 2026-05-05 20:22 | 46.26113 | 5.04951 | 20269 ft | 400 kts | 0° |
| 2026-05-05 20:22 | 46.28884 | 5.05052 | 20795 ft | 403 kts | 0° |
| 2026-05-05 20:22 | 46.31720 | 5.05154 | 21313 ft | 406 kts | 0° |
| 2026-05-05 20:22 | 46.34571 | 5.05256 | 21806 ft | 409 kts | 0° |
| 2026-05-05 20:23 | 46.37465 | 5.05359 | 22391 ft | 410 kts | 0° |
| 2026-05-05 20:23 | 46.40290 | 5.05460 | 23045 ft | 408 kts | 0° |
| 2026-05-05 20:23 | 46.43130 | 5.05562 | 23666 ft | 407 kts | 0° |
| 2026-05-05 20:23 | 46.46005 | 5.05666 | 24275 ft | 407 kts | 0° |
| 2026-05-05 20:24 | 46.48809 | 5.05616 | 24827 ft | 406 kts | 351° |
| 2026-05-05 20:24 | 46.51588 | 5.04648 | 25419 ft | 402 kts | 340° |
| 2026-05-05 20:24 | 46.54200 | 5.03353 | 26014 ft | 401 kts | 338° |
| 2026-05-05 20:24 | 46.56853 | 5.02005 | 26550 ft | 401 kts | 338° |
| 2026-05-05 20:25 | 46.59543 | 5.00683 | 27003 ft | 404 kts | 339° |
| 2026-05-05 20:25 | 46.62235 | 4.99405 | 27434 ft | 407 kts | 339° |
| 2026-05-05 20:25 | 46.64926 | 4.98161 | 27810 ft | 410 kts | 339° |
| 2026-05-05 20:25 | 46.67696 | 4.96898 | 27876 ft | 411 kts | 340° |
| 2026-05-05 20:26 | 46.70440 | 4.95658 | 27882 ft | 411 kts | 340° |
| 2026-05-05 20:26 | 46.73189 | 4.94423 | 27885 ft | 411 kts | 340° |
| 2026-05-05 20:26 | 46.75927 | 4.93196 | 27875 ft | 411 kts | 340° |
| 2026-05-05 20:26 | 46.78685 | 4.91959 | 27875 ft | 411 kts | 340° |
| 2026-05-05 20:27 | 46.81417 | 4.90735 | 27870 ft | 411 kts | 340° |
| 2026-05-05 20:27 | 46.84171 | 4.89498 | 27865 ft | 412 kts | 340° |
| 2026-05-05 20:27 | 46.86898 | 4.88274 | 27867 ft | 412 kts | 340° |
| 2026-05-05 20:27 | 46.89638 | 4.87043 | 27860 ft | 411 kts | 340° |
| 2026-05-05 20:28 | 46.92381 | 4.85809 | 27863 ft | 411 kts | 340° |
| 2026-05-05 20:28 | 46.95162 | 4.84556 | 27858 ft | 411 kts | 340° |
| 2026-05-05 20:28 | 46.97868 | 4.83337 | 27862 ft | 411 kts | 340° |
| 2026-05-05 20:28 | 47.00631 | 4.82089 | 27860 ft | 412 kts | 340° |
| 2026-05-05 20:29 | 47.03381 | 4.80846 | 27859 ft | 412 kts | 340° |
| 2026-05-05 20:29 | 47.06127 | 4.79604 | 27856 ft | 412 kts | 340° |
| 2026-05-05 20:29 | 47.08877 | 4.78357 | 27856 ft | 412 kts | 340° |
| 2026-05-05 20:29 | 47.11651 | 4.77098 | 27854 ft | 412 kts | 340° |
| 2026-05-05 20:30 | 47.14384 | 4.75858 | 27855 ft | 412 kts | 340° |
| 2026-05-05 20:30 | 47.17137 | 4.74606 | 27856 ft | 412 kts | 340° |
| 2026-05-05 20:30 | 47.19853 | 4.73369 | 27855 ft | 412 kts | 340° |
| 2026-05-05 20:30 | 47.22545 | 4.71831 | 27850 ft | 409 kts | 332° |
| 2026-05-05 20:31 | 47.25126 | 4.69926 | 27851 ft | 408 kts | 329° |
| 2026-05-05 20:31 | 47.27650 | 4.67983 | 27851 ft | 408 kts | 329° |
| 2026-05-05 20:31 | 47.30173 | 4.66056 | 27852 ft | 408 kts | 330° |
| 2026-05-05 20:31 | 47.32695 | 4.64157 | 27852 ft | 408 kts | 330° |
| 2026-05-05 20:32 | 47.35260 | 4.62249 | 27853 ft | 408 kts | 330° |
| 2026-05-05 20:32 | 47.37789 | 4.60377 | 27852 ft | 409 kts | 331° |
| 2026-05-05 20:32 | 47.40352 | 4.58487 | 27849 ft | 409 kts | 331° |
| 2026-05-05 20:32 | 47.42903 | 4.56613 | 27848 ft | 409 kts | 331° |
| 2026-05-05 20:33 | 47.45482 | 4.54716 | 27848 ft | 410 kts | 331° |
| 2026-05-05 20:33 | 47.48037 | 4.52834 | 27844 ft | 410 kts | 331° |
| 2026-05-05 20:33 | 47.50596 | 4.50950 | 27842 ft | 410 kts | 332° |
| 2026-05-05 20:33 | 47.53130 | 4.49085 | 27842 ft | 410 kts | 332° |
| 2026-05-05 20:34 | 47.55718 | 4.47175 | 27840 ft | 410 kts | 332° |
| 2026-05-05 20:34 | 47.58280 | 4.45285 | 27840 ft | 410 kts | 332° |
| 2026-05-05 20:34 | 47.60837 | 4.43396 | 27840 ft | 409 kts | 332° |
| 2026-05-05 20:34 | 47.63354 | 4.41532 | 27756 ft | 410 kts | 332° |
| 2026-05-05 20:35 | 47.65928 | 4.39626 | 27481 ft | 407 kts | 332° |
| 2026-05-05 20:35 | 47.68473 | 4.37741 | 27215 ft | 404 kts | 332° |
| 2026-05-05 20:35 | 47.70987 | 4.35877 | 26940 ft | 402 kts | 332° |
| 2026-05-05 20:35 | 47.73445 | 4.34050 | 26675 ft | 399 kts | 332° |
| 2026-05-05 20:36 | 47.75935 | 4.32198 | 26403 ft | 398 kts | 332° |
| 2026-05-05 20:36 | 47.78420 | 4.30349 | 26133 ft | 398 kts | 332° |
| 2026-05-05 20:36 | 47.80890 | 4.28507 | 25865 ft | 398 kts | 332° |
| 2026-05-05 20:36 | 47.83363 | 4.26660 | 25596 ft | 398 kts | 332° |
| 2026-05-05 20:37 | 47.85854 | 4.24800 | 25326 ft | 398 kts | 332° |
| 2026-05-05 20:37 | 47.88353 | 4.22932 | 25051 ft | 398 kts | 332° |
| 2026-05-05 20:37 | 47.90823 | 4.21082 | 24773 ft | 398 kts | 332° |
| 2026-05-05 20:37 | 47.93273 | 4.19244 | 24504 ft | 398 kts | 332° |
| 2026-05-05 20:38 | 47.95779 | 4.17364 | 24236 ft | 398 kts | 332° |
| 2026-05-05 20:38 | 47.98251 | 4.15507 | 23963 ft | 398 kts | 332° |
| 2026-05-05 20:38 | 48.00718 | 4.13651 | 23697 ft | 398 kts | 332° |
| 2026-05-05 20:38 | 48.03190 | 4.11791 | 23437 ft | 397 kts | 332° |
| 2026-05-05 20:39 | 48.05659 | 4.09933 | 23172 ft | 397 kts | 332° |
| 2026-05-05 20:39 | 48.08155 | 4.08051 | 22909 ft | 397 kts | 332° |
| 2026-05-05 20:39 | 48.10613 | 4.06194 | 22647 ft | 397 kts | 332° |
| 2026-05-05 20:39 | 48.13121 | 4.04299 | 22383 ft | 398 kts | 332° |
| 2026-05-05 20:40 | 48.15578 | 4.02441 | 22123 ft | 398 kts | 332° |
| 2026-05-05 20:40 | 48.18063 | 4.00558 | 21855 ft | 398 kts | 332° |
| 2026-05-05 20:40 | 48.20525 | 3.98689 | 21595 ft | 398 kts | 332° |
| 2026-05-05 20:40 | 48.23026 | 3.96791 | 21316 ft | 396 kts | 332° |
| 2026-05-05 20:41 | 48.25496 | 3.94915 | 21044 ft | 394 kts | 332° |
| 2026-05-05 20:41 | 48.27918 | 3.93073 | 20765 ft | 392 kts | 332° |
| 2026-05-05 20:41 | 48.30347 | 3.91224 | 20475 ft | 390 kts | 332° |
| 2026-05-05 20:41 | 48.32761 | 3.89385 | 20125 ft | 387 kts | 332° |
| 2026-05-05 20:42 | 48.35171 | 3.87546 | 19675 ft | 385 kts | 332° |
| 2026-05-05 20:42 | 48.37526 | 3.85746 | 19219 ft | 382 kts | 332° |
| 2026-05-05 20:42 | 48.39896 | 3.83932 | 18743 ft | 379 kts | 332° |
| 2026-05-05 20:42 | 48.42266 | 3.82109 | 18257 ft | 375 kts | 332° |
| 2026-05-05 20:43 | 48.44598 | 3.80303 | 17762 ft | 371 kts | 332° |
| 2026-05-05 20:43 | 48.46879 | 3.78549 | 17277 ft | 368 kts | 332° |
| 2026-05-05 20:43 | 48.49161 | 3.76786 | 16798 ft | 365 kts | 332° |
| 2026-05-05 20:43 | 48.51401 | 3.75070 | 16307 ft | 363 kts | 331° |
| 2026-05-05 20:44 | 48.53527 | 3.72937 | 15789 ft | 358 kts | 317° |
| 2026-05-05 20:44 | 48.55199 | 3.70179 | 15595 ft | 352 kts | 304° |
| 2026-05-05 20:44 | 48.56548 | 3.67144 | 15620 ft | 353 kts | 301° |
| 2026-05-05 20:44 | 48.57886 | 3.63978 | 15626 ft | 353 kts | 301° |
| 2026-05-05 20:45 | 48.60560 | 3.57667 | 15029 ft | 352 kts | 301° |
| 2026-05-05 20:45 | 48.61886 | 3.54565 | 14811 ft | 346 kts | 302° |
| 2026-05-05 20:45 | 48.63186 | 3.51528 | 14812 ft | 347 kts | 302° |
| 2026-05-05 20:46 | 48.64374 | 3.48327 | 14802 ft | 345 kts | 291° |
| 2026-05-05 20:46 | 48.65091 | 3.44884 | 14813 ft | 345 kts | 284° |
| 2026-05-05 20:46 | 48.65705 | 3.41326 | 14810 ft | 345 kts | 284° |
| 2026-05-05 20:46 | 48.66320 | 3.37780 | 14810 ft | 344 kts | 285° |
| 2026-05-05 20:47 | 48.66949 | 3.34274 | 14810 ft | 345 kts | 284° |
| 2026-05-05 20:47 | 48.67603 | 3.30743 | 14809 ft | 345 kts | 285° |
| 2026-05-05 20:47 | 48.68263 | 3.27229 | 14812 ft | 345 kts | 285° |
| 2026-05-05 20:47 | 48.68930 | 3.23714 | 14801 ft | 345 kts | 285° |
| 2026-05-05 20:48 | 48.69597 | 3.20222 | 14567 ft | 343 kts | 286° |
| 2026-05-05 20:48 | 48.70259 | 3.16761 | 14315 ft | 342 kts | 286° |
| 2026-05-05 20:48 | 48.70919 | 3.13307 | 14066 ft | 341 kts | 286° |
| 2026-05-05 20:48 | 48.71586 | 3.09828 | 13814 ft | 340 kts | 287° |
| 2026-05-05 20:49 | 48.72240 | 3.06408 | 13565 ft | 339 kts | 287° |
| 2026-05-05 20:49 | 48.72892 | 3.02998 | 13319 ft | 339 kts | 287° |
| 2026-05-05 20:49 | 48.73553 | 2.99542 | 13066 ft | 338 kts | 287° |
| 2026-05-05 20:49 | 48.74210 | 2.96094 | 12815 ft | 339 kts | 286° |
| 2026-05-05 20:50 | 48.74864 | 2.92659 | 12566 ft | 338 kts | 286° |
| 2026-05-05 20:50 | 48.75518 | 2.89215 | 12310 ft | 337 kts | 286° |
| 2026-05-05 20:50 | 48.76164 | 2.85791 | 12056 ft | 336 kts | 286° |
| 2026-05-05 20:50 | 48.76808 | 2.82376 | 11795 ft | 336 kts | 287° |
| 2026-05-05 20:51 | 48.77441 | 2.79013 | 11545 ft | 334 kts | 287° |
| 2026-05-05 20:51 | 48.78079 | 2.75623 | 11298 ft | 333 kts | 287° |
| 2026-05-05 20:51 | 48.78719 | 2.72221 | 11037 ft | 332 kts | 287° |
| 2026-05-05 20:51 | 48.79357 | 2.68829 | 10775 ft | 332 kts | 287° |
| 2026-05-05 20:52 | 48.79988 | 2.65464 | 10517 ft | 329 kts | 287° |
| 2026-05-05 20:52 | 48.80604 | 2.62169 | 10169 ft | 321 kts | 287° |
| 2026-05-05 20:52 | 48.81205 | 2.58958 | 9832 ft | 314 kts | 287° |
| 2026-05-05 20:52 | 48.81791 | 2.55809 | 9627 ft | 303 kts | 287° |
| 2026-05-05 20:53 | 48.82354 | 2.52775 | 9497 ft | 294 kts | 287° |
| 2026-05-05 20:53 | 48.82904 | 2.49812 | 9375 ft | 293 kts | 287° |
| 2026-05-05 20:53 | 48.83460 | 2.46817 | 9249 ft | 291 kts | 287° |
| 2026-05-05 20:53 | 48.84003 | 2.43879 | 9123 ft | 289 kts | 288° |
| 2026-05-05 20:54 | 48.84542 | 2.40957 | 8998 ft | 287 kts | 288° |
| 2026-05-05 20:54 | 48.85078 | 2.38050 | 8873 ft | 285 kts | 288° |
| 2026-05-05 20:54 | 48.85614 | 2.35151 | 8746 ft | 285 kts | 288° |
| 2026-05-05 20:54 | 48.86155 | 2.32220 | 8620 ft | 284 kts | 287° |
| 2026-05-05 20:55 | 48.86673 | 2.29394 | 8461 ft | 273 kts | 287° |
| 2026-05-05 20:55 | 48.87169 | 2.26681 | 8332 ft | 262 kts | 288° |
| 2026-05-05 20:55 | 48.87643 | 2.24085 | 8197 ft | 253 kts | 289° |
| 2026-05-05 20:55 | 48.88118 | 2.21489 | 8058 ft | 249 kts | 289° |
| 2026-05-05 20:56 | 48.88585 | 2.18940 | 7959 ft | 249 kts | 288° |
| 2026-05-05 20:56 | 48.89045 | 2.16421 | 7867 ft | 248 kts | 288° |
| 2026-05-05 20:56 | 48.89509 | 2.13889 | 7766 ft | 248 kts | 288° |
| 2026-05-05 20:56 | 48.89988 | 2.11362 | 7668 ft | 247 kts | 294° |
| 2026-05-05 20:57 | 48.90948 | 2.09256 | 7545 ft | 239 kts | 324° |
| 2026-05-05 20:57 | 48.92418 | 2.08265 | 7444 ft | 234 kts | 355° |
| 2026-05-05 20:57 | 48.94009 | 2.08612 | 7343 ft | 230 kts | 26° |
| 2026-05-05 20:57 | 48.95203 | 2.10166 | 7248 ft | 231 kts | 53° |
| 2026-05-05 20:58 | 48.96006 | 2.12254 | 7169 ft | 232 kts | 61° |
| 2026-05-05 20:58 | 48.96659 | 2.14504 | 6974 ft | 232 kts | 69° |
| 2026-05-05 20:58 | 48.97041 | 2.16897 | 6721 ft | 232 kts | 77° |
| 2026-05-05 20:58 | 48.97187 | 2.19301 | 6458 ft | 235 kts | 95° |
| 2026-05-05 20:59 | 48.96555 | 2.21608 | 6199 ft | 242 kts | 126° |
| 2026-05-05 20:59 | 48.95204 | 2.23106 | 5950 ft | 248 kts | 158° |
| 2026-05-05 20:59 | 48.93477 | 2.23367 | 5697 ft | 252 kts | 189° |
| 2026-05-05 20:59 | 48.91874 | 2.22253 | 5441 ft | 253 kts | 221° |
| 2026-05-05 21:00 | 48.90870 | 2.20099 | 5186 ft | 249 kts | 253° |
| 2026-05-05 21:00 | 48.90733 | 2.17577 | 5001 ft | 241 kts | 287° |
| 2026-05-05 21:00 | 48.91466 | 2.15401 | 4997 ft | 232 kts | 319° |
| 2026-05-05 21:00 | 48.92810 | 2.14190 | 4995 ft | 224 kts | 351° |
| 2026-05-05 21:01 | 48.94331 | 2.14314 | 4993 ft | 218 kts | 23° |
| 2026-05-05 21:01 | 48.95511 | 2.15695 | 4999 ft | 218 kts | 53° |
| 2026-05-05 21:01 | 48.96302 | 2.17686 | 5008 ft | 219 kts | 61° |
| 2026-05-05 21:01 | 48.96925 | 2.19780 | 4970 ft | 220 kts | 68° |
| 2026-05-05 21:02 | 48.97312 | 2.22079 | 4740 ft | 222 kts | 77° |
| 2026-05-05 21:02 | 48.97545 | 2.24384 | 4443 ft | 220 kts | 79° |
| 2026-05-05 21:02 | 48.97728 | 2.26727 | 4150 ft | 222 kts | 81° |
| 2026-05-05 21:02 | 48.97869 | 2.29034 | 3862 ft | 218 kts | 82° |
| 2026-05-05 21:03 | 48.97988 | 2.31314 | 3558 ft | 216 kts | 82° |
| 2026-05-05 21:03 | 48.98101 | 2.33582 | 3261 ft | 209 kts | 82° |
| 2026-05-05 21:03 | 48.98206 | 2.35729 | 3027 ft | 195 kts | 82° |
| 2026-05-05 21:03 | 48.98301 | 2.37680 | 2819 ft | 180 kts | 81° |
| 2026-05-05 21:04 | 48.98393 | 2.39523 | 2589 ft | 167 kts | 80° |
| 2026-05-05 21:04 | 48.98480 | 2.41228 | 2325 ft | 153 kts | 80° |
| 2026-05-05 21:04 | 48.98557 | 2.42747 | 2091 ft | 139 kts | 79° |
| 2026-05-05 21:04 | 48.98630 | 2.44153 | 1906 ft | 135 kts | 78° |
| 2026-05-05 21:05 | 48.98705 | 2.45555 | 1743 ft | 134 kts | 78° |
| 2026-05-05 21:05 | 48.98779 | 2.46955 | 1575 ft | 133 kts | 79° |
| 2026-05-05 21:05 | 48.98852 | 2.48351 | 1407 ft | 133 kts | 79° |
| 2026-05-05 21:05 | 48.98925 | 2.49725 | 1240 ft | 133 kts | 80° |
| 2026-05-05 21:06 | 48.98995 | 2.51103 | 1052 ft | 133 kts | 81° |
| 2026-05-05 21:06 | 48.99049 | 2.52472 | 875 ft | 132 kts | 80° |
| 2026-05-05 21:06 | 48.99136 | 2.53846 | 726 ft | 132 kts | 79° |
| 2026-05-05 21:06 | 48.99209 | 2.55175 | 554 ft | 131 kts | 81° |
| 2026-05-05 21:07 | 48.99287 | 2.56562 | 379 ft | 130 kts | 82° |
| 2026-05-05 21:07 | 48.99364 | 2.57905 | 324 ft | 109 kts | 85° |
| 2026-05-05 21:07 | 48.99407 | 2.58700 | 322 ft | 50 kts | 85° |
| 2026-05-05 21:07 | 48.99429 | 2.59081 | 320 ft | 28 kts | 80° |
| 2026-05-05 21:08 | 48.99488 | 2.59327 | 320 ft | 19 kts | 66° |
| 2026-05-05 21:08 | 48.99530 | 2.59465 | 321 ft | 13 kts | 64° |
| 2026-05-05 21:08 | 48.99569 | 2.59593 | 322 ft | 8 kts | 65° |
| 2026-05-05 21:08 | 48.99600 | 2.59674 | 320 ft | 10 kts | 38° |
| 2026-05-05 21:09 | 48.99675 | 2.59691 | 321 ft | 11 kts | 356° |
| 2026-05-05 21:09 | 48.99751 | 2.59683 | 322 ft | 10 kts | 354° |
| 2026-05-05 21:09 | 48.99826 | 2.59672 | 324 ft | 10 kts | 354° |
| 2026-05-05 21:09 | 48.99900 | 2.59662 | 324 ft | 11 kts | 354° |
| 2026-05-05 21:10 | 48.99982 | 2.59652 | 324 ft | 12 kts | 355° |
| 2026-05-05 21:10 | 49.00068 | 2.59644 | 325 ft | 12 kts | 355° |
| 2026-05-05 21:10 | 49.00147 | 2.59634 | 327 ft | 11 kts | 354° |
| 2026-05-05 21:10 | 49.00227 | 2.59624 | 327 ft | 11 kts | 355° |
| 2026-05-05 21:11 | 49.00312 | 2.59615 | 327 ft | 12 kts | 355° |
| 2026-05-05 21:11 | 49.00400 | 2.59603 | 329 ft | 12 kts | 354° |
| 2026-05-05 21:11 | 49.00476 | 2.59591 | 330 ft | 10 kts | 354° |
| 2026-05-05 21:11 | 49.00565 | 2.59581 | 330 ft | 16 kts | 355° |
| 2026-05-05 21:12 | 49.00693 | 2.59568 | 330 ft | 19 kts | 354° |
| 2026-05-05 21:12 | 49.00820 | 2.59552 | 333 ft | 17 kts | 355° |
| 2026-05-05 21:12 | 49.00930 | 2.59538 | 334 ft | 11 kts | 355° |
| 2026-05-05 21:12 | 49.00986 | 2.59514 | 334 ft | 8 kts | 317° |
| 2026-05-05 21:13 | 49.01001 | 2.59432 | 334 ft | 8 kts | 268° |
| 2026-05-05 21:13 | 49.00996 | 2.59342 | 334 ft | 9 kts | 264° |
| 2026-05-05 21:13 | 49.00991 | 2.59241 | 334 ft | 10 kts | 266° |
| 2026-05-05 21:13 | 49.00985 | 2.59133 | 334 ft | 12 kts | 264° |
| 2026-05-05 21:14 | 49.00965 | 2.58999 | 334 ft | 13 kts | 252° |
| 2026-05-05 21:14 | 49.00948 | 2.58863 | 336 ft | 12 kts | 265° |
| 2026-05-05 21:14 | 49.00941 | 2.58729 | 336 ft | 14 kts | 265° |
| 2026-05-05 21:14 | 49.00934 | 2.58589 | 336 ft | 15 kts | 264° |
| 2026-05-05 21:15 | 49.00925 | 2.58428 | 335 ft | 16 kts | 265° |
| 2026-05-05 21:15 | 49.00915 | 2.58256 | 335 ft | 17 kts | 264° |
| 2026-05-05 21:15 | 49.00906 | 2.58077 | 337 ft | 17 kts | 265° |
| 2026-05-05 21:15 | 49.00898 | 2.57915 | 337 ft | 17 kts | 264° |
| 2026-05-05 21:16 | 49.00889 | 2.57789 | 337 ft | 9 kts | 255° |
| 2026-05-05 21:16 | 49.00853 | 2.57736 | 337 ft | 8 kts | 193° |
| 2026-05-05 21:16 | 49.00797 | 2.57731 | 336 ft | 8 kts | 200° |
| 2026-05-05 21:16 | 49.00774 | 2.57667 | 336 ft | 9 kts | 263° |
| 2026-05-05 21:17 | 49.00768 | 2.57567 | 336 ft | 9 kts | 265° |
| 2026-05-05 21:17 | 49.00764 | 2.57466 | 336 ft | 10 kts | 265° |
| 2026-05-05 21:17 | 49.00758 | 2.57358 | 337 ft | 9 kts | 264° |
| 2026-05-05 21:17 | 49.00754 | 2.57274 | 337 ft | 9 kts | 262° |
| 2026-05-05 21:18 | 49.00706 | 2.57231 | 337 ft | 9 kts | 181° |
| 2026-05-05 21:18 | 49.00632 | 2.57237 | 336 ft | 11 kts | 175° |
| 2026-05-05 21:18 | 49.00574 | 2.57245 | 335 ft | 4 kts | 172° |
| 2026-05-05 21:18 | 49.00549 | 2.57267 | 335 ft | 5 kts | 127° |
| 2026-05-05 21:19 | 49.00542 | 2.57301 | 335 ft | 2 kts | 90° |
| 2026-05-05 21:19 | 49.00544 | 2.57325 | 335 ft | 2 kts | 83° |
| 2026-05-05 21:19 | 49.00545 | 2.57341 | 335 ft | 2 kts | 79° |
| 2026-05-05 21:19 | 49.00546 | 2.57343 | 335 ft | 0 kts | 78° |